sensor_id;sensor_type;location;lat;lon;timestamp;P1;durP1;ratioP1;P2;durP2;ratioP2
59486;SDS011;45298;54.918;73.504;2023-09-30T00:00:10;9.98;;;4.72;;
59486;SDS011;45298;54.918;73.504;2023-09-30T00:02:39;14.60;;;6.32;;
59486;SDS011;45298;54.918;73.504;2023-09-30T00:05:08;11.25;;;5.50;;
59486;SDS011;45298;54.918;73.504;2023-09-30T00:07:38;14.48;;;5.38;;
59486;SDS011;45298;54.918;73.504;2023-09-30T00:10:06;12.20;;;5.43;;
59486;SDS011;45298;54.918;73.504;2023-09-30T00:12:36;12.10;;;5.68;;
59486;SDS011;45298;54.918;73.504;2023-09-30T00:15:04;10.15;;;5.03;;
59486;SDS011;45298;54.918;73.504;2023-09-30T00:17:34;11.52;;;5.15;;
59486;SDS011;45298;54.918;73.504;2023-09-30T00:20:03;17.38;;;5.13;;
59486;SDS011;45298;54.918;73.504;2023-09-30T00:22:32;8.25;;;4.47;;
59486;SDS011;45298;54.918;73.504;2023-09-30T00:25:01;11.52;;;5.75;;
59486;SDS011;45298;54.918;73.504;2023-09-30T00:27:30;8.52;;;4.68;;
59486;SDS011;45298;54.918;73.504;2023-09-30T00:29:59;10.63;;;4.38;;
59486;SDS011;45298;54.918;73.504;2023-09-30T00:32:28;10.27;;;5.10;;
59486;SDS011;45298;54.918;73.504;2023-09-30T00:34:57;9.73;;;4.47;;
59486;SDS011;45298;54.918;73.504;2023-09-30T00:37:25;9.13;;;4.30;;
59486;SDS011;45298;54.918;73.504;2023-09-30T00:39:56;13.65;;;6.40;;
59486;SDS011;45298;54.918;73.504;2023-09-30T00:42:27;17.92;;;5.32;;
59486;SDS011;45298;54.918;73.504;2023-09-30T00:44:57;11.65;;;5.03;;
59486;SDS011;45298;54.918;73.504;2023-09-30T00:47:27;9.63;;;4.20;;
59486;SDS011;45298;54.918;73.504;2023-09-30T00:49:56;11.90;;;4.72;;
59486;SDS011;45298;54.918;73.504;2023-09-30T00:52:25;11.75;;;5.03;;
59486;SDS011;45298;54.918;73.504;2023-09-30T00:54:55;12.00;;;5.15;;
59486;SDS011;45298;54.918;73.504;2023-09-30T00:57:24;11.35;;;4.53;;
59486;SDS011;45298;54.918;73.504;2023-09-30T00:59:53;12.70;;;4.68;;
59486;SDS011;45298;54.918;73.504;2023-09-30T01:02:23;7.28;;;4.35;;
59486;SDS011;45298;54.918;73.504;2023-09-30T01:04:52;10.75;;;3.92;;
59486;SDS011;45298;54.918;73.504;2023-09-30T01:07:22;9.40;;;4.47;;
59486;SDS011;45298;54.918;73.504;2023-09-30T01:09:52;11.40;;;4.40;;
59486;SDS011;45298;54.918;73.504;2023-09-30T01:12:22;12.85;;;4.95;;
59486;SDS011;45298;54.918;73.504;2023-09-30T01:14:56;11.70;;;4.53;;
59486;SDS011;45298;54.918;73.504;2023-09-30T01:17:26;11.57;;;5.20;;
59486;SDS011;45298;54.918;73.504;2023-09-30T01:20:00;11.48;;;4.32;;
59486;SDS011;45298;54.918;73.504;2023-09-30T01:22:32;12.18;;;4.53;;
59486;SDS011;45298;54.918;73.504;2023-09-30T01:25:01;10.52;;;4.95;;
59486;SDS011;45298;54.918;73.504;2023-09-30T01:27:30;9.55;;;4.40;;
59486;SDS011;45298;54.918;73.504;2023-09-30T01:29:59;9.93;;;4.18;;
59486;SDS011;45298;54.918;73.504;2023-09-30T01:32:27;9.70;;;4.65;;
59486;SDS011;45298;54.918;73.504;2023-09-30T01:34:57;11.82;;;5.38;;
59486;SDS011;45298;54.918;73.504;2023-09-30T01:37:26;7.95;;;4.15;;
59486;SDS011;45298;54.918;73.504;2023-09-30T01:39:56;9.20;;;4.38;;
59486;SDS011;45298;54.918;73.504;2023-09-30T01:42:26;11.98;;;4.60;;
59486;SDS011;45298;54.918;73.504;2023-09-30T01:44:55;11.18;;;5.13;;
59486;SDS011;45298;54.918;73.504;2023-09-30T01:47:25;9.82;;;3.90;;
59486;SDS011;45298;54.918;73.504;2023-09-30T01:49:54;9.73;;;4.50;;
59486;SDS011;45298;54.918;73.504;2023-09-30T01:52:23;11.68;;;4.45;;
59486;SDS011;45298;54.918;73.504;2023-09-30T01:54:52;18.50;;;4.78;;
59486;SDS011;45298;54.918;73.504;2023-09-30T01:57:22;9.70;;;4.50;;
59486;SDS011;45298;54.918;73.504;2023-09-30T01:59:50;9.48;;;4.25;;
59486;SDS011;45298;54.918;73.504;2023-09-30T02:02:22;10.25;;;5.07;;
59486;SDS011;45298;54.918;73.504;2023-09-30T02:04:50;12.43;;;5.30;;
59486;SDS011;45298;54.918;73.504;2023-09-30T02:07:19;7.35;;;4.28;;
59486;SDS011;45298;54.918;73.504;2023-09-30T02:09:48;10.07;;;4.25;;
59486;SDS011;45298;54.918;73.504;2023-09-30T02:12:17;11.00;;;4.25;;
59486;SDS011;45298;54.918;73.504;2023-09-30T02:14:46;7.97;;;4.25;;
59486;SDS011;45298;54.918;73.504;2023-09-30T02:17:15;10.32;;;4.65;;
59486;SDS011;45298;54.918;73.504;2023-09-30T02:19:44;7.57;;;4.30;;
59486;SDS011;45298;54.918;73.504;2023-09-30T02:22:13;9.65;;;4.90;;
59486;SDS011;45298;54.918;73.504;2023-09-30T02:24:43;17.30;;;5.32;;
59486;SDS011;45298;54.918;73.504;2023-09-30T02:27:12;7.43;;;4.38;;
59486;SDS011;45298;54.918;73.504;2023-09-30T02:29:41;13.25;;;5.20;;
59486;SDS011;45298;54.918;73.504;2023-09-30T02:32:09;12.77;;;5.07;;
59486;SDS011;45298;54.918;73.504;2023-09-30T02:34:38;11.38;;;5.45;;
59486;SDS011;45298;54.918;73.504;2023-09-30T02:37:07;9.60;;;4.60;;
59486;SDS011;45298;54.918;73.504;2023-09-30T02:39:36;13.00;;;5.28;;
59486;SDS011;45298;54.918;73.504;2023-09-30T02:42:05;9.75;;;5.25;;
59486;SDS011;45298;54.918;73.504;2023-09-30T02:44:34;11.20;;;5.05;;
59486;SDS011;45298;54.918;73.504;2023-09-30T02:47:03;9.05;;;4.20;;
59486;SDS011;45298;54.918;73.504;2023-09-30T02:49:33;9.27;;;5.10;;
59486;SDS011;45298;54.918;73.504;2023-09-30T02:52:02;9.98;;;5.22;;
59486;SDS011;45298;54.918;73.504;2023-09-30T02:54:31;10.20;;;5.82;;
59486;SDS011;45298;54.918;73.504;2023-09-30T02:56:59;14.68;;;5.07;;
59486;SDS011;45298;54.918;73.504;2023-09-30T02:59:28;11.15;;;5.97;;
59486;SDS011;45298;54.918;73.504;2023-09-30T03:01:57;12.13;;;5.43;;
59486;SDS011;45298;54.918;73.504;2023-09-30T03:04:26;11.82;;;4.95;;
59486;SDS011;45298;54.918;73.504;2023-09-30T03:06:56;10.57;;;5.63;;
59486;SDS011;45298;54.918;73.504;2023-09-30T03:09:25;15.95;;;6.57;;
59486;SDS011;45298;54.918;73.504;2023-09-30T03:11:54;13.25;;;6.50;;
59486;SDS011;45298;54.918;73.504;2023-09-30T03:14:27;12.77;;;4.78;;
59486;SDS011;45298;54.918;73.504;2023-09-30T03:16:59;15.38;;;5.55;;
59486;SDS011;45298;54.918;73.504;2023-09-30T03:19:27;13.63;;;5.65;;
59486;SDS011;45298;54.918;73.504;2023-09-30T03:21:57;15.68;;;4.78;;
59486;SDS011;45298;54.918;73.504;2023-09-30T03:24:26;11.52;;;5.03;;
59486;SDS011;45298;54.918;73.504;2023-09-30T03:26:55;11.02;;;5.03;;
59486;SDS011;45298;54.918;73.504;2023-09-30T03:29:23;12.05;;;5.60;;
59486;SDS011;45298;54.918;73.504;2023-09-30T03:31:52;9.10;;;5.10;;
59486;SDS011;45298;54.918;73.504;2023-09-30T03:34:21;11.27;;;5.32;;
59486;SDS011;45298;54.918;73.504;2023-09-30T03:36:49;11.38;;;4.95;;
59486;SDS011;45298;54.918;73.504;2023-09-30T03:39:18;14.43;;;6.45;;
59486;SDS011;45298;54.918;73.504;2023-09-30T03:41:55;10.15;;;4.43;;
59486;SDS011;45298;54.918;73.504;2023-09-30T03:44:24;8.82;;;4.60;;
59486;SDS011;45298;54.918;73.504;2023-09-30T03:46:53;11.00;;;4.85;;
59486;SDS011;45298;54.918;73.504;2023-09-30T03:49:22;9.48;;;4.90;;
59486;SDS011;45298;54.918;73.504;2023-09-30T03:51:51;14.20;;;5.25;;
59486;SDS011;45298;54.918;73.504;2023-09-30T03:54:21;10.73;;;4.65;;
59486;SDS011;45298;54.918;73.504;2023-09-30T03:56:50;8.88;;;4.55;;
59486;SDS011;45298;54.918;73.504;2023-09-30T03:59:19;12.77;;;5.90;;
59486;SDS011;45298;54.918;73.504;2023-09-30T04:01:48;12.95;;;4.97;;
59486;SDS011;45298;54.918;73.504;2023-09-30T04:04:17;14.77;;;5.35;;
59486;SDS011;45298;54.918;73.504;2023-09-30T04:06:47;11.43;;;5.03;;
59486;SDS011;45298;54.918;73.504;2023-09-30T04:09:16;10.73;;;5.68;;
59486;SDS011;45298;54.918;73.504;2023-09-30T04:11:44;12.85;;;4.97;;
59486;SDS011;45298;54.918;73.504;2023-09-30T04:14:14;12.20;;;5.80;;
59486;SDS011;45298;54.918;73.504;2023-09-30T04:16:45;10.98;;;5.20;;
59486;SDS011;45298;54.918;73.504;2023-09-30T04:19:13;10.73;;;5.07;;
59486;SDS011;45298;54.918;73.504;2023-09-30T04:21:42;13.02;;;5.68;;
59486;SDS011;45298;54.918;73.504;2023-09-30T04:24:11;12.35;;;5.28;;
59486;SDS011;45298;54.918;73.504;2023-09-30T04:26:40;9.15;;;4.68;;
59486;SDS011;45298;54.918;73.504;2023-09-30T04:29:10;9.82;;;4.93;;
59486;SDS011;45298;54.918;73.504;2023-09-30T04:31:41;12.40;;;5.68;;
59486;SDS011;45298;54.918;73.504;2023-09-30T04:34:10;11.55;;;5.57;;
59486;SDS011;45298;54.918;73.504;2023-09-30T04:36:39;16.40;;;4.60;;
59486;SDS011;45298;54.918;73.504;2023-09-30T04:39:08;9.85;;;5.18;;
59486;SDS011;45298;54.918;73.504;2023-09-30T04:41:39;10.10;;;4.95;;
59486;SDS011;45298;54.918;73.504;2023-09-30T04:44:09;10.57;;;4.68;;
59486;SDS011;45298;54.918;73.504;2023-09-30T04:46:39;13.38;;;5.43;;
59486;SDS011;45298;54.918;73.504;2023-09-30T04:49:08;11.13;;;4.97;;
59486;SDS011;45298;54.918;73.504;2023-09-30T04:51:37;10.90;;;5.50;;
59486;SDS011;45298;54.918;73.504;2023-09-30T04:54:07;11.25;;;5.57;;
59486;SDS011;45298;54.918;73.504;2023-09-30T04:56:36;11.95;;;5.28;;
59486;SDS011;45298;54.918;73.504;2023-09-30T04:59:06;10.77;;;5.22;;
59486;SDS011;45298;54.918;73.504;2023-09-30T05:01:37;13.15;;;5.57;;
59486;SDS011;45298;54.918;73.504;2023-09-30T05:04:06;12.00;;;5.68;;
59486;SDS011;45298;54.918;73.504;2023-09-30T05:06:35;11.60;;;5.57;;
59486;SDS011;45298;54.918;73.504;2023-09-30T05:09:04;17.20;;;6.45;;
59486;SDS011;45298;54.918;73.504;2023-09-30T05:11:34;13.82;;;6.55;;
59486;SDS011;45298;54.918;73.504;2023-09-30T05:14:03;20.20;;;7.65;;
59486;SDS011;45298;54.918;73.504;2023-09-30T05:16:33;16.42;;;7.07;;
59486;SDS011;45298;54.918;73.504;2023-09-30T05:19:02;17.20;;;7.47;;
59486;SDS011;45298;54.918;73.504;2023-09-30T05:21:32;16.05;;;6.95;;
59486;SDS011;45298;54.918;73.504;2023-09-30T05:24:04;15.95;;;6.93;;
59486;SDS011;45298;54.918;73.504;2023-09-30T05:26:33;14.27;;;6.70;;
59486;SDS011;45298;54.918;73.504;2023-09-30T05:29:02;15.75;;;7.65;;
59486;SDS011;45298;54.918;73.504;2023-09-30T05:31:31;13.25;;;6.43;;
59486;SDS011;45298;54.918;73.504;2023-09-30T05:34:00;12.70;;;6.20;;
59486;SDS011;45298;54.918;73.504;2023-09-30T05:36:30;16.90;;;7.05;;
59486;SDS011;45298;54.918;73.504;2023-09-30T05:38:59;16.75;;;7.35;;
59486;SDS011;45298;54.918;73.504;2023-09-30T05:41:33;16.83;;;5.72;;
59486;SDS011;45298;54.918;73.504;2023-09-30T05:44:01;10.48;;;5.53;;
59486;SDS011;45298;54.918;73.504;2023-09-30T05:46:30;9.68;;;5.82;;
59486;SDS011;45298;54.918;73.504;2023-09-30T05:48:59;13.32;;;6.13;;
59486;SDS011;45298;54.918;73.504;2023-09-30T05:51:28;16.48;;;6.57;;
59486;SDS011;45298;54.918;73.504;2023-09-30T05:53:57;13.02;;;5.90;;
59486;SDS011;45298;54.918;73.504;2023-09-30T05:56:26;13.82;;;6.22;;
59486;SDS011;45298;54.918;73.504;2023-09-30T05:58:55;14.23;;;6.00;;
59486;SDS011;45298;54.918;73.504;2023-09-30T06:01:25;11.48;;;5.28;;
59486;SDS011;45298;54.918;73.504;2023-09-30T06:03:54;10.38;;;4.40;;
59486;SDS011;45298;54.918;73.504;2023-09-30T06:06:24;10.80;;;5.25;;
59486;SDS011;45298;54.918;73.504;2023-09-30T06:08:55;10.88;;;4.57;;
59486;SDS011;45298;54.918;73.504;2023-09-30T06:11:29;9.20;;;4.32;;
59486;SDS011;45298;54.918;73.504;2023-09-30T06:13:58;11.35;;;4.45;;
59486;SDS011;45298;54.918;73.504;2023-09-30T06:16:27;10.90;;;4.15;;
59486;SDS011;45298;54.918;73.504;2023-09-30T06:18:57;16.95;;;4.63;;
59486;SDS011;45298;54.918;73.504;2023-09-30T06:21:29;8.93;;;4.18;;
59486;SDS011;45298;54.918;73.504;2023-09-30T06:23:59;7.70;;;3.72;;
59486;SDS011;45298;54.918;73.504;2023-09-30T06:26:31;8.35;;;4.63;;
59486;SDS011;45298;54.918;73.504;2023-09-30T06:28:59;8.07;;;3.80;;
59486;SDS011;45298;54.918;73.504;2023-09-30T06:31:28;7.93;;;3.90;;
59486;SDS011;45298;54.918;73.504;2023-09-30T06:33:57;8.15;;;3.83;;
59486;SDS011;45298;54.918;73.504;2023-09-30T06:36:28;11.43;;;4.47;;
59486;SDS011;45298;54.918;73.504;2023-09-30T06:38:57;10.15;;;4.43;;
59486;SDS011;45298;54.918;73.504;2023-09-30T06:41:26;9.10;;;3.83;;
59486;SDS011;45298;54.918;73.504;2023-09-30T06:43:55;7.90;;;2.92;;
59486;SDS011;45298;54.918;73.504;2023-09-30T06:46:24;7.40;;;3.50;;
59486;SDS011;45298;54.918;73.504;2023-09-30T06:48:54;5.72;;;3.25;;
59486;SDS011;45298;54.918;73.504;2023-09-30T06:51:26;7.63;;;3.17;;
59486;SDS011;45298;54.918;73.504;2023-09-30T06:53:55;10.40;;;3.95;;
59486;SDS011;45298;54.918;73.504;2023-09-30T06:56:23;9.43;;;4.30;;
59486;SDS011;45298;54.918;73.504;2023-09-30T06:58:52;6.97;;;3.17;;
59486;SDS011;45298;54.918;73.504;2023-09-30T07:01:21;5.03;;;2.42;;
59486;SDS011;45298;54.918;73.504;2023-09-30T07:03:50;6.93;;;3.33;;
59486;SDS011;45298;54.918;73.504;2023-09-30T07:06:26;8.32;;;3.30;;
59486;SDS011;45298;54.918;73.504;2023-09-30T07:08:57;7.22;;;3.20;;
59486;SDS011;45298;54.918;73.504;2023-09-30T07:11:26;6.07;;;3.03;;
59486;SDS011;45298;54.918;73.504;2023-09-30T07:14:01;4.90;;;2.38;;
59486;SDS011;45298;54.918;73.504;2023-09-30T07:16:30;6.90;;;2.58;;
59486;SDS011;45298;54.918;73.504;2023-09-30T07:18:59;8.65;;;2.80;;
59486;SDS011;45298;54.918;73.504;2023-09-30T07:21:28;6.43;;;2.75;;
59486;SDS011;45298;54.918;73.504;2023-09-30T07:24:00;6.57;;;3.03;;
59486;SDS011;45298;54.918;73.504;2023-09-30T07:26:30;5.47;;;2.40;;
59486;SDS011;45298;54.918;73.504;2023-09-30T07:28:59;6.10;;;2.53;;
59486;SDS011;45298;54.918;73.504;2023-09-30T07:31:27;6.40;;;2.63;;
59486;SDS011;45298;54.918;73.504;2023-09-30T07:33:56;5.55;;;2.60;;
59486;SDS011;45298;54.918;73.504;2023-09-30T07:36:25;6.05;;;2.90;;
59486;SDS011;45298;54.918;73.504;2023-09-30T07:38:54;13.75;;;5.80;;
59486;SDS011;45298;54.918;73.504;2023-09-30T07:41:33;10.27;;;3.55;;
59486;SDS011;45298;54.918;73.504;2023-09-30T07:44:07;25.23;;;9.60;;
59486;SDS011;45298;54.918;73.504;2023-09-30T07:46:37;10.60;;;4.72;;
59486;SDS011;45298;54.918;73.504;2023-09-30T07:49:08;9.77;;;4.03;;
59486;SDS011;45298;54.918;73.504;2023-09-30T07:51:39;6.40;;;3.08;;
59486;SDS011;45298;54.918;73.504;2023-09-30T07:54:08;7.93;;;3.47;;
59486;SDS011;45298;54.918;73.504;2023-09-30T07:56:57;8.55;;;3.40;;
59486;SDS011;45298;54.918;73.504;2023-09-30T07:59:27;10.57;;;3.55;;
59486;SDS011;45298;54.918;73.504;2023-09-30T08:01:55;7.97;;;4.15;;
59486;SDS011;45298;54.918;73.504;2023-09-30T08:04:25;7.00;;;3.53;;
59486;SDS011;45298;54.918;73.504;2023-09-30T08:06:54;11.18;;;4.20;;
59486;SDS011;45298;54.918;73.504;2023-09-30T08:09:23;8.20;;;4.15;;
59486;SDS011;45298;54.918;73.504;2023-09-30T08:11:55;7.95;;;3.63;;
59486;SDS011;45298;54.918;73.504;2023-09-30T08:14:24;7.13;;;3.97;;
59486;SDS011;45298;54.918;73.504;2023-09-30T08:16:53;8.95;;;3.45;;
59486;SDS011;45298;54.918;73.504;2023-09-30T08:19:22;7.95;;;3.95;;
59486;SDS011;45298;54.918;73.504;2023-09-30T08:21:51;9.20;;;3.80;;
59486;SDS011;45298;54.918;73.504;2023-09-30T08:24:20;8.45;;;3.75;;
59486;SDS011;45298;54.918;73.504;2023-09-30T08:26:49;9.43;;;4.10;;
59486;SDS011;45298;54.918;73.504;2023-09-30T08:29:19;9.93;;;3.85;;
59486;SDS011;45298;54.918;73.504;2023-09-30T08:31:49;9.65;;;4.63;;
59486;SDS011;45298;54.918;73.504;2023-09-30T08:34:20;8.32;;;3.33;;
59486;SDS011;45298;54.918;73.504;2023-09-30T08:36:52;13.75;;;6.85;;
59486;SDS011;45298;54.918;73.504;2023-09-30T08:39:21;7.43;;;3.80;;
59486;SDS011;45298;54.918;73.504;2023-09-30T08:41:50;12.38;;;4.88;;
59486;SDS011;45298;54.918;73.504;2023-09-30T08:44:20;7.03;;;3.85;;
59486;SDS011;45298;54.918;73.504;2023-09-30T08:46:49;12.40;;;6.30;;
59486;SDS011;45298;54.918;73.504;2023-09-30T08:49:20;13.75;;;5.85;;
59486;SDS011;45298;54.918;73.504;2023-09-30T08:51:50;9.70;;;4.28;;
59486;SDS011;45298;54.918;73.504;2023-09-30T08:54:20;10.60;;;5.00;;
59486;SDS011;45298;54.918;73.504;2023-09-30T08:56:48;14.30;;;5.38;;
59486;SDS011;45298;54.918;73.504;2023-09-30T08:59:17;18.35;;;7.63;;
59486;SDS011;45298;54.918;73.504;2023-09-30T09:01:46;15.75;;;7.82;;
59486;SDS011;45298;54.918;73.504;2023-09-30T09:04:16;21.60;;;8.98;;
59486;SDS011;45298;54.918;73.504;2023-09-30T09:06:46;19.70;;;7.93;;
59486;SDS011;45298;54.918;73.504;2023-09-30T09:09:16;12.73;;;4.90;;
59486;SDS011;45298;54.918;73.504;2023-09-30T09:11:47;9.77;;;4.63;;
59486;SDS011;45298;54.918;73.504;2023-09-30T09:14:18;5.25;;;2.45;;
59486;SDS011;45298;54.918;73.504;2023-09-30T09:16:54;5.47;;;2.72;;
59486;SDS011;45298;54.918;73.504;2023-09-30T09:19:24;4.97;;;2.65;;
59486;SDS011;45298;54.918;73.504;2023-09-30T09:21:54;4.13;;;2.17;;
59486;SDS011;45298;54.918;73.504;2023-09-30T09:24:32;6.47;;;2.53;;
59486;SDS011;45298;54.918;73.504;2023-09-30T09:27:06;4.50;;;2.03;;
59486;SDS011;45298;54.918;73.504;2023-09-30T09:29:37;5.43;;;3.00;;
59486;SDS011;45298;54.918;73.504;2023-09-30T09:32:14;10.93;;;4.72;;
59486;SDS011;45298;54.918;73.504;2023-09-30T09:34:44;11.80;;;5.55;;
59486;SDS011;45298;54.918;73.504;2023-09-30T09:37:27;11.50;;;5.82;;
59486;SDS011;45298;54.918;73.504;2023-09-30T09:40:02;13.60;;;6.30;;
59486;SDS011;45298;54.918;73.504;2023-09-30T09:42:34;11.10;;;5.10;;
59486;SDS011;45298;54.918;73.504;2023-09-30T09:45:05;12.40;;;5.10;;
59486;SDS011;45298;54.918;73.504;2023-09-30T09:47:35;11.82;;;5.90;;
59486;SDS011;45298;54.918;73.504;2023-09-30T09:50:08;12.25;;;6.82;;
59486;SDS011;45298;54.918;73.504;2023-09-30T09:52:38;11.32;;;5.38;;
59486;SDS011;45298;54.918;73.504;2023-09-30T09:55:13;17.92;;;9.35;;
59486;SDS011;45298;54.918;73.504;2023-09-30T09:57:45;13.05;;;6.10;;
59486;SDS011;45298;54.918;73.504;2023-09-30T10:00:15;13.30;;;6.05;;
59486;SDS011;45298;54.918;73.504;2023-09-30T10:02:52;20.83;;;8.50;;
59486;SDS011;45298;54.918;73.504;2023-09-30T10:05:24;15.77;;;7.18;;
59486;SDS011;45298;54.918;73.504;2023-09-30T10:08:05;16.60;;;6.95;;
59486;SDS011;45298;54.918;73.504;2023-09-30T10:10:39;11.50;;;5.03;;
59486;SDS011;45298;54.918;73.504;2023-09-30T10:13:09;13.80;;;5.88;;
59486;SDS011;45298;54.918;73.504;2023-09-30T10:15:58;16.83;;;6.95;;
59486;SDS011;45298;54.918;73.504;2023-09-30T10:18:27;18.15;;;8.07;;
59486;SDS011;45298;54.918;73.504;2023-09-30T10:20:56;11.80;;;5.40;;
59486;SDS011;45298;54.918;73.504;2023-09-30T10:23:38;11.82;;;5.43;;
59486;SDS011;45298;54.918;73.504;2023-09-30T10:28:42;11.77;;;5.60;;
59486;SDS011;45298;54.918;73.504;2023-09-30T10:31:19;11.73;;;5.57;;
59486;SDS011;45298;54.918;73.504;2023-09-30T10:39:11;14.40;;;6.93;;
59486;SDS011;45298;54.918;73.504;2023-09-30T10:41:49;23.25;;;8.40;;
59486;SDS011;45298;54.918;73.504;2023-09-30T10:46:58;12.63;;;5.65;;
59486;SDS011;45298;54.918;73.504;2023-09-30T10:49:31;10.02;;;4.65;;
59486;SDS011;45298;54.918;73.504;2023-09-30T10:52:00;11.65;;;5.18;;
59486;SDS011;45298;54.918;73.504;2023-09-30T10:54:35;13.55;;;5.75;;
59486;SDS011;45298;54.918;73.504;2023-09-30T10:57:04;10.27;;;4.55;;
59486;SDS011;45298;54.918;73.504;2023-09-30T10:59:34;12.15;;;5.30;;
59486;SDS011;45298;54.918;73.504;2023-09-30T11:02:26;9.20;;;4.43;;
59486;SDS011;45298;54.918;73.504;2023-09-30T11:04:56;6.88;;;3.70;;
59486;SDS011;45298;54.918;73.504;2023-09-30T11:07:26;8.38;;;4.07;;
59486;SDS011;45298;54.918;73.504;2023-09-30T11:10:00;10.23;;;4.65;;
59486;SDS011;45298;54.918;73.504;2023-09-30T11:12:30;8.98;;;3.75;;
59486;SDS011;45298;54.918;73.504;2023-09-30T11:15:01;8.75;;;4.43;;
59486;SDS011;45298;54.918;73.504;2023-09-30T11:17:31;7.38;;;3.88;;
59486;SDS011;45298;54.918;73.504;2023-09-30T11:20:00;6.18;;;2.97;;
59486;SDS011;45298;54.918;73.504;2023-09-30T11:22:37;16.42;;;7.35;;
59486;SDS011;45298;54.918;73.504;2023-09-30T11:25:14;13.75;;;5.70;;
59486;SDS011;45298;54.918;73.504;2023-09-30T11:27:48;8.77;;;4.28;;
59486;SDS011;45298;54.918;73.504;2023-09-30T11:30:17;8.77;;;4.25;;
59486;SDS011;45298;54.918;73.504;2023-09-30T11:32:46;12.50;;;4.43;;
59486;SDS011;45298;54.918;73.504;2023-09-30T11:35:22;9.13;;;4.63;;
59486;SDS011;45298;54.918;73.504;2023-09-30T11:37:52;10.13;;;4.63;;
59486;SDS011;45298;54.918;73.504;2023-09-30T11:40:21;11.30;;;5.72;;
59486;SDS011;45298;54.918;73.504;2023-09-30T11:43:07;15.52;;;6.70;;
59486;SDS011;45298;54.918;73.504;2023-09-30T11:45:37;14.35;;;6.15;;
59486;SDS011;45298;54.918;73.504;2023-09-30T11:48:19;7.82;;;4.13;;
59486;SDS011;45298;54.918;73.504;2023-09-30T11:50:49;7.15;;;3.67;;
59486;SDS011;45298;54.918;73.504;2023-09-30T11:53:26;11.52;;;4.90;;
59486;SDS011;45298;54.918;73.504;2023-09-30T11:55:57;8.25;;;4.75;;
59486;SDS011;45298;54.918;73.504;2023-09-30T11:58:28;7.50;;;4.47;;
59486;SDS011;45298;54.918;73.504;2023-09-30T12:01:00;7.07;;;3.50;;
59486;SDS011;45298;54.918;73.504;2023-09-30T12:03:29;13.30;;;6.70;;
59486;SDS011;45298;54.918;73.504;2023-09-30T12:06:08;15.52;;;7.47;;
59486;SDS011;45298;54.918;73.504;2023-09-30T12:08:41;11.50;;;5.85;;
59486;SDS011;45298;54.918;73.504;2023-09-30T12:11:11;9.10;;;4.57;;
59486;SDS011;45298;54.918;73.504;2023-09-30T12:13:47;9.40;;;5.30;;
59486;SDS011;45298;54.918;73.504;2023-09-30T12:16:19;15.45;;;6.82;;
59486;SDS011;45298;54.918;73.504;2023-09-30T12:18:49;12.55;;;6.43;;
59486;SDS011;45298;54.918;73.504;2023-09-30T12:21:18;13.50;;;6.65;;
59486;SDS011;45298;54.918;73.504;2023-09-30T12:23:48;31.05;;;9.65;;
59486;SDS011;45298;54.918;73.504;2023-09-30T12:26:20;28.48;;;11.10;;
59486;SDS011;45298;54.918;73.504;2023-09-30T12:28:49;40.60;;;15.88;;
59486;SDS011;45298;54.918;73.504;2023-09-30T12:31:21;57.20;;;22.95;;
59486;SDS011;45298;54.918;73.504;2023-09-30T12:33:51;37.92;;;18.90;;
59486;SDS011;45298;54.918;73.504;2023-09-30T12:36:24;39.13;;;17.17;;
59486;SDS011;45298;54.918;73.504;2023-09-30T12:38:59;38.90;;;14.85;;
59486;SDS011;45298;54.918;73.504;2023-09-30T12:41:28;28.05;;;12.65;;
59486;SDS011;45298;54.918;73.504;2023-09-30T12:44:01;30.25;;;11.68;;
59486;SDS011;45298;54.918;73.504;2023-09-30T12:46:30;20.48;;;9.55;;
59486;SDS011;45298;54.918;73.504;2023-09-30T12:49:06;34.92;;;11.32;;
59486;SDS011;45298;54.918;73.504;2023-09-30T12:51:38;43.00;;;15.38;;
59486;SDS011;45298;54.918;73.504;2023-09-30T12:54:08;21.50;;;9.70;;
59486;SDS011;45298;54.918;73.504;2023-09-30T12:56:41;32.30;;;11.88;;
59486;SDS011;45298;54.918;73.504;2023-09-30T12:59:10;30.10;;;11.88;;
59486;SDS011;45298;54.918;73.504;2023-09-30T13:01:40;27.10;;;11.93;;
59486;SDS011;45298;54.918;73.504;2023-09-30T13:04:12;14.07;;;5.65;;
59486;SDS011;45298;54.918;73.504;2023-09-30T13:06:42;14.73;;;5.53;;
59486;SDS011;45298;54.918;73.504;2023-09-30T13:09:14;9.95;;;4.30;;
59486;SDS011;45298;54.918;73.504;2023-09-30T13:11:45;10.48;;;3.53;;
59486;SDS011;45298;54.918;73.504;2023-09-30T13:14:15;7.63;;;3.53;;
59486;SDS011;45298;54.918;73.504;2023-09-30T13:16:44;8.80;;;3.97;;
59486;SDS011;45298;54.918;73.504;2023-09-30T13:19:14;4.78;;;2.40;;
59486;SDS011;45298;54.918;73.504;2023-09-30T13:21:44;11.10;;;3.10;;
59486;SDS011;45298;54.918;73.504;2023-09-30T13:24:13;12.02;;;5.88;;
59486;SDS011;45298;54.918;73.504;2023-09-30T13:26:48;6.97;;;3.40;;
59486;SDS011;45298;54.918;73.504;2023-09-30T13:29:20;5.70;;;2.08;;
59486;SDS011;45298;54.918;73.504;2023-09-30T13:31:52;4.75;;;2.17;;
59486;SDS011;45298;54.918;73.504;2023-09-30T13:34:26;6.60;;;2.60;;
59486;SDS011;45298;54.918;73.504;2023-09-30T13:36:56;3.78;;;1.70;;
59486;SDS011;45298;54.918;73.504;2023-09-30T13:39:25;8.55;;;3.58;;
59486;SDS011;45298;54.918;73.504;2023-09-30T13:41:56;5.18;;;2.53;;
59486;SDS011;45298;54.918;73.504;2023-09-30T13:44:28;6.38;;;3.03;;
59486;SDS011;45298;54.918;73.504;2023-09-30T13:46:57;11.95;;;5.13;;
59486;SDS011;45298;54.918;73.504;2023-09-30T13:49:26;4.47;;;2.65;;
59486;SDS011;45298;54.918;73.504;2023-09-30T13:51:56;3.88;;;2.28;;
59486;SDS011;45298;54.918;73.504;2023-09-30T13:54:29;4.88;;;2.33;;
59486;SDS011;45298;54.918;73.504;2023-09-30T13:57:10;3.80;;;2.50;;
59486;SDS011;45298;54.918;73.504;2023-09-30T13:59:39;6.88;;;2.13;;
59486;SDS011;45298;54.918;73.504;2023-09-30T14:02:12;6.72;;;2.20;;
59486;SDS011;45298;54.918;73.504;2023-09-30T14:04:44;5.85;;;2.70;;
59486;SDS011;45298;54.918;73.504;2023-09-30T14:07:14;3.83;;;2.40;;
59486;SDS011;45298;54.918;73.504;2023-09-30T14:09:46;2.85;;;1.80;;
59486;SDS011;45298;54.918;73.504;2023-09-30T14:12:16;4.30;;;2.00;;
59486;SDS011;45298;54.918;73.504;2023-09-30T14:14:53;2.88;;;1.83;;
59486;SDS011;45298;54.918;73.504;2023-09-30T14:17:23;3.67;;;1.60;;
59486;SDS011;45298;54.918;73.504;2023-09-30T14:19:56;4.43;;;2.20;;
59486;SDS011;45298;54.918;73.504;2023-09-30T14:22:25;5.00;;;1.98;;
59486;SDS011;45298;54.918;73.504;2023-09-30T14:24:55;3.75;;;2.22;;
59486;SDS011;45298;54.918;73.504;2023-09-30T14:27:25;5.75;;;2.00;;
59486;SDS011;45298;54.918;73.504;2023-09-30T14:29:54;3.28;;;1.58;;
59486;SDS011;45298;54.918;73.504;2023-09-30T14:32:24;3.95;;;1.58;;
59486;SDS011;45298;54.918;73.504;2023-09-30T14:34:57;4.47;;;2.13;;
59486;SDS011;45298;54.918;73.504;2023-09-30T14:37:26;5.78;;;2.08;;
59486;SDS011;45298;54.918;73.504;2023-09-30T14:39:59;4.20;;;1.92;;
59486;SDS011;45298;54.918;73.504;2023-09-30T14:42:38;3.60;;;2.03;;
59486;SDS011;45298;54.918;73.504;2023-09-30T14:45:13;5.45;;;2.00;;
59486;SDS011;45298;54.918;73.504;2023-09-30T14:47:42;6.25;;;2.92;;
59486;SDS011;45298;54.918;73.504;2023-09-30T14:50:14;5.78;;;3.13;;
59486;SDS011;45298;54.918;73.504;2023-09-30T14:52:44;4.70;;;2.28;;
59486;SDS011;45298;54.918;73.504;2023-09-30T14:55:19;7.15;;;2.92;;